createdAt,value
2023-05-16T00:00:09.434Z,7.40
2023-05-16T00:00:21.166Z,6.78
2023-05-16T00:00:33.257Z,7.00
2023-05-16T00:00:45.037Z,7.05
2023-05-16T00:00:56.722Z,7.30
2023-05-16T00:01:08.401Z,7.45
2023-05-16T00:01:20.018Z,7.07
2023-05-16T00:01:31.762Z,6.80
2023-05-16T00:01:43.507Z,6.55
2023-05-16T00:01:55.286Z,6.43
2023-05-16T00:02:07.021Z,6.40
2023-05-16T00:02:19.194Z,6.45
2023-05-16T00:02:31.044Z,6.57
2023-05-16T00:02:42.992Z,6.55
2023-05-16T00:02:54.879Z,6.60
2023-05-16T00:03:06.821Z,6.63
2023-05-16T00:03:18.904Z,6.45
2023-05-16T00:03:30.741Z,6.40
2023-05-16T00:03:42.931Z,6.28
2023-05-16T00:03:54.808Z,6.75
2023-05-16T00:04:06.742Z,7.00
2023-05-16T00:04:18.743Z,6.78
2023-05-16T00:04:30.581Z,6.45
2023-05-16T00:04:42.303Z,6.35
2023-05-16T00:04:54.107Z,6.80
2023-05-16T00:05:06.910Z,6.43
2023-05-16T00:05:20.038Z,6.45
2023-05-16T00:05:31.890Z,6.53
2023-05-16T00:05:43.600Z,6.70
2023-05-16T00:05:55.264Z,6.93
2023-05-16T00:06:07.224Z,6.93
2023-05-16T00:06:18.930Z,6.88
2023-05-16T00:06:30.858Z,6.70
2023-05-16T00:06:42.616Z,6.80
2023-05-16T00:06:54.381Z,6.75
2023-05-16T00:07:06.083Z,6.60
2023-05-16T00:07:17.932Z,6.65
2023-05-16T00:07:29.660Z,6.45
2023-05-16T00:07:43.210Z,6.47
2023-05-16T00:07:54.921Z,6.43
2023-05-16T00:08:06.679Z,6.82
2023-05-16T00:08:18.420Z,6.90
2023-05-16T00:08:30.466Z,6.55
2023-05-16T00:08:42.143Z,6.35
2023-05-16T00:08:53.855Z,6.43
2023-05-16T00:09:05.534Z,6.60
2023-05-16T00:09:17.261Z,6.32
2023-05-16T00:09:28.939Z,6.65
2023-05-16T00:09:40.640Z,6.65
2023-05-16T00:09:52.414Z,6.78
2023-05-16T00:10:04.799Z,6.55
2023-05-16T00:10:16.502Z,5.88
2023-05-16T00:10:28.440Z,6.30
2023-05-16T00:10:40.425Z,6.85
2023-05-16T00:10:52.106Z,7.20
2023-05-16T00:11:03.848Z,6.53
2023-05-16T00:11:17.177Z,6.53
2023-05-16T00:11:28.958Z,6.65
2023-05-16T00:11:40.761Z,6.75
2023-05-16T00:11:52.427Z,6.43
2023-05-16T00:12:04.485Z,6.25
2023-05-16T00:12:16.208Z,6.38
2023-05-16T00:12:27.854Z,6.25
2023-05-16T00:12:40.088Z,6.28
2023-05-16T00:12:51.942Z,6.40
2023-05-16T00:13:03.718Z,6.80
2023-05-16T00:13:15.442Z,6.60
2023-05-16T00:13:27.160Z,6.72
2023-05-16T00:13:38.827Z,6.50
2023-05-16T00:13:50.542Z,6.45
2023-05-16T00:14:02.815Z,6.25
2023-05-16T00:14:14.538Z,6.32
2023-05-16T00:14:26.402Z,6.45
2023-05-16T00:14:38.122Z,6.45
2023-05-16T00:14:49.854Z,6.15
2023-05-16T00:15:01.499Z,6.50
2023-05-16T00:15:13.307Z,6.57
2023-05-16T00:15:25.114Z,6.65
2023-05-16T00:15:36.899Z,6.68
2023-05-16T00:15:48.575Z,6.55
2023-05-16T00:16:00.280Z,6.35
2023-05-16T00:16:12.110Z,6.40
2023-05-16T00:16:23.903Z,6.10
2023-05-16T00:16:35.721Z,6.20
2023-05-16T00:16:47.663Z,6.10
2023-05-16T00:16:59.601Z,6.50
2023-05-16T00:17:11.495Z,6.53
2023-05-16T00:17:23.508Z,6.18
2023-05-16T00:17:35.645Z,5.82
2023-05-16T00:17:47.486Z,5.68
2023-05-16T00:17:59.425Z,5.93
2023-05-16T00:18:11.455Z,6.13
2023-05-16T00:18:23.388Z,6.60
2023-05-16T00:18:35.218Z,6.70
2023-05-16T00:18:47.023Z,6.80
2023-05-16T00:18:58.767Z,6.68
2023-05-16T00:19:10.597Z,6.88
2023-05-16T00:19:22.521Z,6.80
2023-05-16T00:19:34.262Z,6.47
2023-05-16T00:19:46.318Z,6.18
2023-05-16T00:19:57.997Z,6.15
2023-05-16T00:20:10.664Z,5.85
2023-05-16T00:20:24.032Z,5.72
2023-05-16T00:20:35.799Z,5.30
2023-05-16T00:20:47.712Z,5.05
2023-05-16T00:20:59.382Z,5.38
2023-05-16T00:21:11.229Z,5.35
2023-05-16T00:21:23.822Z,5.80
2023-05-16T00:21:35.681Z,5.60
2023-05-16T00:21:47.415Z,5.78
2023-05-16T00:21:59.095Z,5.93
2023-05-16T00:22:10.849Z,5.82
2023-05-16T00:22:22.472Z,5.70
2023-05-16T00:22:34.244Z,5.45
2023-05-16T00:22:45.957Z,5.63
2023-05-16T00:22:57.719Z,5.63
2023-05-16T00:23:09.508Z,5.43
2023-05-16T00:23:21.179Z,5.38
2023-05-16T00:23:33.170Z,4.97
2023-05-16T00:23:44.899Z,4.78
2023-05-16T00:23:56.598Z,4.80
2023-05-16T00:24:08.623Z,4.85
2023-05-16T00:24:20.342Z,5.20
2023-05-16T00:24:32.734Z,5.22
2023-05-16T00:24:44.382Z,4.88
2023-05-16T00:24:56.065Z,4.70
2023-05-16T00:25:08.314Z,4.93
2023-05-16T00:25:20.285Z,5.10
2023-05-16T00:25:32.016Z,5.40
2023-05-16T00:25:44.033Z,5.45
2023-05-16T00:25:55.763Z,5.18
2023-05-16T00:26:07.478Z,5.43
2023-05-16T00:26:19.218Z,5.38
2023-05-16T00:26:31.503Z,5.15
2023-05-16T00:26:43.217Z,5.25
2023-05-16T00:26:54.944Z,5.28
2023-05-16T00:27:06.633Z,5.35
2023-05-16T00:27:18.439Z,5.25
2023-05-16T00:27:30.365Z,5.30
2023-05-16T00:27:42.033Z,4.88
2023-05-16T00:27:54.147Z,4.75
2023-05-16T00:28:06.189Z,4.68
2023-05-16T00:28:17.883Z,4.70
2023-05-16T00:28:29.576Z,4.72
2023-05-16T00:28:42.697Z,4.68
2023-05-16T00:28:54.339Z,4.80
2023-05-16T00:29:06.020Z,4.57
2023-05-16T00:29:17.738Z,4.82
2023-05-16T00:29:29.508Z,4.80
2023-05-16T00:29:43.368Z,4.32
2023-05-16T00:29:55.808Z,4.60
2023-05-16T00:30:08.614Z,4.97
2023-05-16T00:30:20.559Z,4.72
2023-05-16T00:30:32.326Z,4.57
2023-05-16T00:30:44.024Z,4.78
2023-05-16T00:30:55.790Z,4.55
2023-05-16T00:31:08.322Z,4.22
2023-05-16T00:31:20.040Z,4.63
2023-05-16T00:31:31.755Z,4.75
2023-05-16T00:31:43.470Z,4.43
2023-05-16T00:31:56.186Z,4.00
2023-05-16T00:32:08.260Z,4.40
2023-05-16T00:32:20.090Z,4.50
2023-05-16T00:32:32.187Z,4.72
2023-05-16T00:32:45.864Z,4.85
2023-05-16T00:32:57.654Z,4.93
2023-05-16T00:33:09.464Z,4.60
2023-05-16T00:33:21.224Z,4.47
2023-05-16T00:33:33.684Z,4.57
2023-05-16T00:33:45.373Z,5.00
2023-05-16T00:33:57.124Z,4.78
2023-05-16T00:34:09.908Z,4.68
2023-05-16T00:34:21.710Z,4.53
2023-05-16T00:34:33.528Z,4.60
2023-05-16T00:34:45.314Z,4.55
2023-05-16T00:34:57.059Z,4.95
2023-05-16T00:35:08.999Z,5.05
2023-05-16T00:35:20.655Z,4.75
2023-05-16T00:35:35.788Z,4.50
2023-05-16T00:35:47.471Z,4.32
2023-05-16T00:35:59.157Z,4.43
2023-05-16T00:36:10.825Z,4.40
2023-05-16T00:36:23.804Z,4.53
2023-05-16T00:36:35.701Z,4.25
2023-05-16T00:36:47.378Z,4.18
2023-05-16T00:37:00.071Z,4.60
2023-05-16T00:37:11.866Z,4.80
2023-05-16T00:37:23.506Z,4.25
2023-05-16T00:37:35.166Z,3.85
2023-05-16T00:37:46.900Z,4.00
2023-05-16T00:37:58.612Z,4.15
2023-05-16T00:38:10.363Z,4.25
2023-05-16T00:38:22.111Z,4.00
2023-05-16T00:38:33.841Z,4.28
2023-05-16T00:38:45.530Z,4.55
2023-05-16T00:38:57.230Z,4.68
2023-05-16T00:39:08.915Z,4.45
2023-05-16T00:39:20.582Z,4.22
2023-05-16T00:39:32.260Z,4.22
2023-05-16T00:39:44.035Z,4.28
2023-05-16T00:39:55.800Z,4.28
2023-05-16T00:40:08.527Z,4.55
2023-05-16T00:40:21.085Z,4.75
2023-05-16T00:40:32.787Z,4.93
2023-05-16T00:40:44.541Z,4.82
2023-05-16T00:40:56.317Z,4.88
2023-05-16T00:41:08.015Z,4.72
2023-05-16T00:41:21.788Z,4.47
2023-05-16T00:41:34.276Z,4.30
2023-05-16T00:41:46.324Z,4.13
2023-05-16T00:41:58.254Z,4.25
2023-05-16T00:42:09.936Z,4.13
2023-05-16T00:42:23.233Z,4.03
2023-05-16T00:42:34.971Z,3.90
2023-05-16T00:42:46.664Z,3.78
2023-05-16T00:42:58.446Z,4.00
2023-05-16T00:43:12.140Z,4.00
2023-05-16T00:43:23.871Z,3.95
2023-05-16T00:43:35.771Z,3.85
2023-05-16T00:43:47.402Z,3.78
2023-05-16T00:43:59.092Z,3.78
2023-05-16T00:44:10.768Z,3.83
2023-05-16T00:44:22.418Z,4.20
2023-05-16T00:44:34.327Z,4.00
2023-05-16T00:44:46.096Z,4.00
2023-05-16T00:44:57.839Z,3.90
2023-05-16T00:45:10.241Z,3.75
2023-05-16T00:45:22.176Z,3.67
2023-05-16T00:45:33.934Z,3.70
2023-05-16T00:45:46.541Z,3.60
2023-05-16T00:45:58.370Z,3.60
2023-05-16T00:46:10.194Z,3.53
2023-05-16T00:46:21.990Z,3.25
2023-05-16T00:46:33.878Z,3.35
2023-05-16T00:46:45.761Z,3.40
2023-05-16T00:46:57.539Z,3.40
2023-05-16T00:47:09.271Z,3.28
2023-05-16T00:47:21.052Z,3.40
2023-05-16T00:47:32.878Z,3.92
2023-05-16T00:47:44.621Z,3.80
2023-05-16T00:47:56.772Z,3.58
2023-05-16T00:48:09.089Z,3.42
2023-05-16T00:48:21.034Z,3.55
2023-05-16T00:48:33.198Z,3.60
2023-05-16T00:48:45.230Z,3.70
2023-05-16T00:48:56.951Z,3.55
2023-05-16T00:49:09.253Z,3.50
2023-05-16T00:49:21.071Z,3.47
2023-05-16T00:49:33.015Z,3.22
2023-05-16T00:49:44.757Z,3.00
2023-05-16T00:49:56.689Z,3.05
2023-05-16T00:50:09.292Z,3.33
2023-05-16T00:50:21.124Z,3.40
2023-05-16T00:50:37.403Z,3.50
2023-05-16T00:50:49.521Z,3.60
2023-05-16T00:51:02.212Z,3.65
2023-05-16T00:51:14.049Z,3.60
2023-05-16T00:51:26.033Z,3.50
2023-05-16T00:51:39.224Z,3.35
2023-05-16T00:51:50.965Z,3.15
2023-05-16T00:52:03.816Z,3.25
2023-05-16T00:52:15.827Z,3.60
2023-05-16T00:52:28.078Z,3.72
2023-05-16T00:52:40.077Z,3.63
2023-05-16T00:52:51.887Z,3.60
2023-05-16T00:53:04.392Z,3.50
2023-05-16T00:53:16.126Z,3.38
2023-05-16T00:53:28.107Z,3.20
2023-05-16T00:53:39.848Z,3.22
2023-05-16T00:53:51.629Z,3.42
2023-05-16T00:54:03.760Z,3.55
2023-05-16T00:54:15.566Z,3.72
2023-05-16T00:54:27.384Z,3.60
2023-05-16T00:54:39.124Z,3.17
2023-05-16T00:54:51.375Z,2.95
2023-05-16T00:55:04.096Z,3.25
2023-05-16T00:55:16.192Z,3.35
2023-05-16T00:55:28.084Z,3.30
2023-05-16T00:55:40.060Z,3.42
2023-05-16T00:55:53.150Z,3.30
2023-05-16T00:56:05.724Z,3.30
2023-05-16T00:56:17.910Z,3.33
2023-05-16T00:56:29.725Z,3.45
2023-05-16T00:56:41.490Z,3.30
2023-05-16T00:56:53.574Z,3.50
2023-05-16T00:57:06.277Z,3.45
2023-05-16T00:57:18.599Z,3.55
2023-05-16T00:57:30.540Z,3.33
2023-05-16T00:57:49.694Z,3.40
2023-05-16T00:58:01.465Z,3.28
2023-05-16T00:58:13.259Z,3.35
2023-05-16T00:58:25.098Z,3.50
2023-05-16T00:58:37.241Z,3.40
2023-05-16T00:58:49.517Z,3.70
2023-05-16T00:59:01.748Z,3.58
2023-05-16T00:59:13.501Z,3.03
2023-05-16T00:59:25.672Z,2.65
2023-05-16T00:59:37.441Z,2.78
2023-05-16T00:59:49.999Z,3.10
2023-05-16T01:00:02.760Z,3.17
2023-05-16T01:00:14.705Z,2.85
2023-05-16T01:00:26.808Z,2.80
2023-05-16T01:00:38.728Z,3.05
2023-05-16T01:00:50.563Z,3.00
2023-05-16T01:01:03.498Z,2.70
2023-05-16T01:01:15.268Z,3.00
2023-05-16T01:01:28.361Z,3.33
2023-05-16T01:01:41.400Z,3.33
2023-05-16T01:01:53.213Z,3.30
2023-05-16T01:02:05.339Z,3.10
2023-05-16T01:02:17.182Z,3.10
2023-05-16T01:02:30.853Z,3.15
2023-05-16T01:02:43.639Z,3.25
2023-05-16T01:02:57.031Z,3.17
2023-05-16T01:03:09.210Z,3.13
2023-05-16T01:03:23.337Z,3.10
2023-05-16T01:03:35.307Z,3.22
2023-05-16T01:03:47.453Z,3.30
2023-05-16T01:04:00.302Z,3.10
2023-05-16T01:04:12.536Z,3.03
2023-05-16T01:04:25.250Z,2.85
2023-05-16T01:04:36.927Z,3.03
2023-05-16T01:04:48.862Z,3.33
2023-05-16T01:05:01.915Z,3.47
2023-05-16T01:05:13.604Z,3.38
2023-05-16T01:05:25.533Z,3.00
2023-05-16T01:05:38.841Z,3.15
2023-05-16T01:05:51.119Z,3.55
2023-05-16T01:06:02.994Z,3.50
2023-05-16T01:06:14.791Z,3.00
2023-05-16T01:06:26.481Z,3.13
2023-05-16T01:06:38.220Z,3.33
2023-05-16T01:06:50.946Z,3.17
2023-05-16T01:07:02.689Z,3.10
2023-05-16T01:07:14.508Z,3.03
2023-05-16T01:07:26.252Z,3.03
2023-05-16T01:07:38.092Z,2.97
2023-05-16T01:07:52.463Z,2.90
2023-05-16T01:08:04.566Z,2.85
2023-05-16T01:08:16.312Z,3.15
2023-05-16T01:08:28.012Z,3.20
2023-05-16T01:08:39.678Z,3.20
2023-05-16T01:08:53.197Z,3.03
2023-05-16T01:09:05.209Z,3.15
2023-05-16T01:09:16.966Z,3.20
2023-05-16T01:09:28.839Z,3.20
2023-05-16T01:09:41.740Z,3.22
2023-05-16T01:09:53.565Z,3.35
2023-05-16T01:10:07.259Z,3.30
2023-05-16T01:10:20.187Z,3.25
2023-05-16T01:10:39.680Z,3.17
2023-05-16T01:11:00.359Z,3.15
2023-05-16T01:11:22.306Z,3.40
2023-05-16T01:11:43.330Z,3.30
2023-05-16T01:12:05.973Z,2.55
2023-05-16T01:12:24.279Z,2.53
2023-05-16T01:12:42.065Z,2.65
2023-05-16T01:13:02.853Z,2.60
2023-05-16T01:13:22.896Z,2.53
2023-05-16T01:13:45.337Z,2.70
2023-05-16T01:14:12.239Z,2.88
2023-05-16T01:14:34.103Z,3.10
2023-05-16T01:14:52.024Z,3.33
2023-05-16T01:15:09.617Z,2.95
2023-05-16T01:15:25.150Z,2.70
2023-05-16T01:15:43.270Z,2.80
2023-05-16T01:16:03.865Z,2.95
2023-05-16T01:16:22.163Z,2.70
2023-05-16T01:16:39.458Z,2.50
2023-05-16T01:16:59.690Z,2.50
2023-05-16T01:17:20.352Z,2.55
2023-05-16T01:17:40.670Z,2.80
2023-05-16T01:17:57.643Z,2.60
2023-05-16T01:18:19.060Z,2.40
2023-05-16T01:18:39.130Z,2.38
2023-05-16T01:19:01.016Z,2.13
2023-05-16T01:19:20.843Z,2.20
2023-05-16T01:19:47.524Z,2.28
2023-05-16T01:20:09.707Z,2.20
2023-05-16T01:20:33.540Z,1.90
2023-05-16T01:20:55.023Z,2.30
2023-05-16T01:21:12.469Z,2.42
2023-05-16T01:21:42.077Z,2.20
2023-05-16T01:22:03.450Z,2.08
2023-05-16T01:22:20.394Z,1.80
2023-05-16T01:22:46.311Z,2.20
2023-05-16T01:23:06.763Z,2.13
2023-05-16T01:23:31.298Z,2.00
2023-05-16T01:23:51.898Z,2.15
2023-05-16T01:24:12.191Z,2.05
2023-05-16T01:24:32.026Z,1.98
2023-05-16T01:24:54.315Z,2.20
2023-05-16T01:25:17.775Z,2.17
2023-05-16T01:25:39.704Z,2.13
2023-05-16T01:25:58.042Z,2.08
2023-05-16T01:26:16.141Z,1.90
2023-05-16T01:26:28.966Z,1.80
2023-05-16T01:26:41.770Z,1.73
2023-05-16T01:26:55.993Z,1.65
2023-05-16T01:27:09.326Z,1.83
2023-05-16T01:27:23.515Z,1.85
2023-05-16T01:27:35.881Z,1.77
2023-05-16T01:27:48.877Z,1.80
2023-05-16T01:28:02.260Z,1.60
2023-05-16T01:28:16.502Z,1.38
2023-05-16T01:28:28.461Z,1.38
2023-05-16T01:28:41.636Z,1.60
2023-05-16T01:28:54.235Z,1.75
2023-05-16T01:29:06.268Z,1.85
2023-05-16T01:29:18.857Z,1.80
2023-05-16T01:29:30.888Z,1.80
2023-05-16T01:29:42.616Z,1.80
2023-05-16T01:29:55.934Z,1.75
2023-05-16T01:30:14.372Z,1.80
2023-05-16T01:30:26.139Z,1.60
2023-05-16T01:30:40.882Z,1.55
2023-05-16T01:30:53.525Z,1.70
2023-05-16T01:31:05.859Z,1.73
2023-05-16T01:31:18.018Z,1.52
2023-05-16T01:31:29.816Z,1.50
2023-05-16T01:31:41.552Z,1.50
2023-05-16T01:31:53.503Z,1.60
2023-05-16T01:32:05.897Z,1.50
2023-05-16T01:32:17.554Z,1.42
2023-05-16T01:32:30.562Z,1.50
2023-05-16T01:32:42.714Z,1.50
2023-05-16T01:32:54.407Z,1.65
2023-05-16T01:33:06.246Z,1.70
2023-05-16T01:33:18.078Z,1.85
2023-05-16T01:33:29.911Z,1.48
2023-05-16T01:33:41.898Z,1.40
2023-05-16T01:33:53.643Z,1.48
2023-05-16T01:34:05.348Z,1.70
2023-05-16T01:34:17.020Z,1.63
2023-05-16T01:34:28.722Z,1.60
2023-05-16T01:34:40.404Z,1.58
2023-05-16T01:34:52.444Z,1.70
2023-05-16T01:35:05.465Z,1.73
2023-05-16T01:35:17.876Z,1.63
2023-05-16T01:35:29.888Z,1.67
2023-05-16T01:35:52.893Z,1.67
2023-05-16T01:36:11.215Z,1.63
2023-05-16T01:36:26.002Z,1.50
2023-05-16T01:36:48.158Z,1.30
2023-05-16T01:37:17.959Z,1.40
2023-05-16T01:37:35.884Z,1.33
2023-05-16T01:37:59.127Z,1.40
2023-05-16T01:38:16.144Z,1.55
2023-05-16T01:38:36.670Z,1.65
2023-05-16T01:38:59.337Z,1.75
2023-05-16T01:39:19.840Z,1.80
2023-05-16T01:39:41.700Z,1.80
2023-05-16T01:39:59.554Z,1.58
2023-05-16T01:40:17.869Z,1.65
2023-05-16T01:40:36.617Z,1.70
2023-05-16T01:40:54.296Z,1.55
2023-05-16T01:41:15.439Z,1.35
2023-05-16T01:41:39.645Z,1.85
2023-05-16T01:41:59.063Z,2.33
2023-05-16T01:42:14.631Z,1.70
2023-05-16T01:42:32.436Z,1.58
2023-05-16T01:42:47.246Z,1.38
2023-05-16T01:43:04.164Z,1.58
2023-05-16T01:43:21.207Z,1.65
2023-05-16T01:43:35.391Z,1.80
2023-05-16T01:43:51.284Z,1.80
2023-05-16T01:44:10.524Z,1.80
2023-05-16T01:44:29.243Z,1.75
2023-05-16T01:44:44.718Z,1.60
2023-05-16T01:45:06.062Z,1.80
2023-05-16T01:45:23.957Z,1.73
2023-05-16T01:45:39.881Z,1.50
2023-05-16T01:45:57.759Z,1.35
2023-05-16T01:46:12.530Z,1.30
2023-05-16T01:46:27.692Z,1.30
2023-05-16T01:46:45.957Z,1.67
2023-05-16T01:47:01.699Z,2.53
2023-05-16T01:47:14.705Z,2.00
2023-05-16T01:47:29.227Z,2.03
2023-05-16T01:47:44.983Z,2.10
2023-05-16T01:48:04.903Z,2.20
2023-05-16T01:48:21.250Z,2.30
2023-05-16T01:48:39.512Z,1.65
2023-05-16T01:48:53.941Z,1.90
2023-05-16T01:49:14.738Z,2.03
2023-05-16T01:49:33.354Z,2.05
2023-05-16T01:49:51.293Z,2.08
2023-05-16T01:50:10.048Z,1.90
2023-05-16T01:50:24.954Z,1.85
2023-05-16T01:50:43.751Z,2.10
2023-05-16T01:50:57.064Z,2.28
2023-05-16T01:51:10.994Z,2.30
2023-05-16T01:51:27.973Z,2.33
2023-05-16T01:51:41.488Z,2.33
2023-05-16T01:51:59.405Z,2.22
2023-05-16T01:52:15.286Z,2.08
2023-05-16T01:52:32.297Z,2.05
2023-05-16T01:52:52.141Z,2.20
2023-05-16T01:53:07.685Z,2.35
2023-05-16T01:53:22.642Z,2.30
2023-05-16T01:53:38.269Z,2.38
2023-05-16T01:53:52.549Z,2.50
2023-05-16T01:54:09.309Z,2.22
2023-05-16T01:54:24.881Z,2.13
2023-05-16T01:54:39.423Z,2.22
2023-05-16T01:54:53.873Z,2.25
2023-05-16T01:55:10.456Z,2.33
2023-05-16T01:55:29.713Z,2.30
2023-05-16T01:55:45.732Z,2.20
2023-05-16T01:56:00.128Z,2.15
2023-05-16T01:56:16.006Z,2.30
2023-05-16T01:56:31.030Z,2.35
2023-05-16T01:56:51.207Z,2.17
2023-05-16T01:57:04.852Z,2.17
2023-05-16T01:57:17.477Z,2.28
2023-05-16T01:57:30.615Z,2.33
2023-05-16T01:57:43.578Z,2.47
2023-05-16T01:57:56.605Z,2.40
2023-05-16T01:58:10.146Z,2.35
2023-05-16T01:58:26.184Z,2.30
2023-05-16T01:58:38.816Z,2.42
2023-05-16T01:58:53.218Z,2.50
2023-05-16T01:59:06.131Z,2.55
2023-05-16T01:59:19.286Z,2.65
2023-05-16T01:59:32.087Z,2.58
2023-05-16T01:59:45.578Z,2.33
2023-05-16T01:59:58.208Z,2.13
2023-05-16T02:00:10.986Z,2.15
2023-05-16T02:00:28.274Z,2.45
2023-05-16T02:00:44.794Z,2.40
2023-05-16T02:01:01.542Z,2.30
2023-05-16T02:01:13.822Z,2.30
2023-05-16T02:01:25.690Z,2.20
2023-05-16T02:01:37.420Z,2.53
2023-05-16T02:01:49.809Z,2.38
2023-05-16T02:02:01.518Z,2.42
2023-05-16T02:02:13.231Z,2.60
2023-05-16T02:02:25.001Z,2.67
2023-05-16T02:02:36.743Z,2.35
2023-05-16T02:02:48.512Z,2.30
2023-05-16T02:03:02.115Z,2.40
2023-05-16T02:03:14.242Z,2.30
2023-05-16T02:03:26.234Z,2.17
2023-05-16T02:03:38.051Z,2.22
2023-05-16T02:03:49.860Z,2.50
2023-05-16T02:04:01.805Z,2.63
2023-05-16T02:04:13.748Z,2.50
2023-05-16T02:04:27.049Z,2.28
2023-05-16T02:04:38.829Z,2.17
2023-05-16T02:04:51.011Z,2.22
2023-05-16T02:05:02.799Z,2.05
2023-05-16T02:05:14.527Z,2.30
2023-05-16T02:05:28.522Z,2.40
2023-05-16T02:05:40.506Z,2.50
2023-05-16T02:05:52.185Z,2.58
2023-05-16T02:06:04.049Z,2.67
2023-05-16T02:06:15.699Z,2.67
2023-05-16T02:06:27.601Z,2.33
2023-05-16T02:06:41.445Z,2.40
2023-05-16T02:06:53.690Z,2.30
2023-05-16T02:07:05.638Z,2.08
2023-05-16T02:07:17.699Z,1.95
2023-05-16T02:07:30.581Z,2.10
2023-05-16T02:07:42.610Z,2.15
2023-05-16T02:07:54.693Z,2.10
2023-05-16T02:08:08.240Z,2.22
2023-05-16T02:08:20.024Z,2.28
2023-05-16T02:08:31.869Z,2.25
2023-05-16T02:08:43.665Z,2.20
2023-05-16T02:08:55.414Z,3.13
2023-05-16T02:09:07.176Z,3.03
2023-05-16T02:09:18.892Z,2.92
2023-05-16T02:09:30.669Z,2.30
2023-05-16T02:09:42.421Z,2.30
2023-05-16T02:09:54.139Z,2.20
2023-05-16T02:10:07.299Z,2.00
2023-05-16T02:10:20.337Z,1.95
2023-05-16T02:10:32.347Z,2.00
2023-05-16T02:10:44.927Z,2.00
2023-05-16T02:10:56.783Z,2.00
2023-05-16T02:11:08.565Z,2.08
2023-05-16T02:11:20.214Z,2.05
2023-05-16T02:11:33.323Z,2.05
2023-05-16T02:11:45.094Z,1.80
2023-05-16T02:11:56.829Z,1.83
2023-05-16T02:12:09.696Z,2.25
2023-05-16T02:12:21.436Z,2.38
2023-05-16T02:12:33.179Z,2.10
2023-05-16T02:12:44.978Z,2.10
2023-05-16T02:12:56.777Z,2.33
2023-05-16T02:13:08.494Z,2.50
2023-05-16T02:13:20.195Z,2.40
2023-05-16T02:13:31.867Z,2.85
2023-05-16T02:13:48.191Z,2.70
2023-05-16T02:13:59.896Z,2.53
2023-05-16T02:14:11.597Z,2.35
2023-05-16T02:14:23.338Z,2.10
2023-05-16T02:14:35.546Z,2.13
2023-05-16T02:14:47.268Z,2.28
2023-05-16T02:14:59.007Z,2.40
2023-05-16T02:15:11.973Z,2.25
2023-05-16T02:15:23.767Z,2.38
2023-05-16T02:15:35.550Z,2.35
2023-05-16T02:15:47.270Z,2.50
2023-05-16T02:15:59.065Z,2.20
2023-05-16T02:16:10.990Z,2.10
2023-05-16T02:16:22.867Z,2.10
2023-05-16T02:16:34.634Z,2.25
2023-05-16T02:16:46.402Z,2.03
2023-05-16T02:16:59.535Z,2.00
2023-05-16T02:17:11.255Z,1.98
2023-05-16T02:17:23.172Z,2.00
2023-05-16T02:17:34.919Z,2.00
2023-05-16T02:17:46.978Z,2.05
2023-05-16T02:17:59.744Z,2.17
2023-05-16T02:18:11.668Z,2.08
2023-05-16T02:18:23.418Z,1.90
2023-05-16T02:18:35.130Z,1.98
2023-05-16T02:18:46.872Z,1.92
2023-05-16T02:18:58.665Z,2.08
2023-05-16T02:19:10.388Z,2.05
2023-05-16T02:19:23.976Z,2.10
2023-05-16T02:19:35.653Z,2.28
2023-05-16T02:19:47.310Z,2.45
2023-05-16T02:19:59.022Z,2.63
2023-05-16T02:20:12.950Z,2.42
2023-05-16T02:20:24.728Z,2.30
2023-05-16T02:20:36.476Z,2.20
2023-05-16T02:20:48.155Z,2.17
2023-05-16T02:21:00.970Z,2.13
2023-05-16T02:21:12.633Z,2.10
2023-05-16T02:21:24.345Z,2.08
2023-05-16T02:21:36.054Z,2.13
2023-05-16T02:21:47.832Z,2.13
2023-05-16T02:21:59.564Z,1.83
2023-05-16T02:22:11.302Z,2.00
2023-05-16T02:22:23.054Z,2.20
2023-05-16T02:22:34.712Z,2.13
2023-05-16T02:22:46.405Z,2.20
2023-05-16T02:22:58.130Z,2.38
2023-05-16T02:23:09.874Z,2.70
2023-05-16T02:23:21.577Z,2.70
2023-05-16T02:23:33.618Z,2.50
2023-05-16T02:23:45.383Z,2.10
2023-05-16T02:24:15.764Z,2.13
2023-05-16T02:24:27.442Z,2.20
2023-05-16T02:24:40.615Z,2.20
2023-05-16T02:24:52.316Z,2.40
2023-05-16T02:25:05.033Z,2.45
2023-05-16T02:25:16.808Z,2.30
2023-05-16T02:25:28.749Z,2.20
2023-05-16T02:25:40.608Z,2.10
2023-05-16T02:25:54.974Z,2.22
2023-05-16T02:26:07.676Z,2.42
2023-05-16T02:26:19.558Z,2.22
2023-05-16T02:26:31.320Z,2.00
2023-05-16T02:26:44.505Z,2.20
2023-05-16T02:26:56.201Z,2.35
2023-05-16T02:27:08.018Z,2.53
2023-05-16T02:27:19.717Z,2.50
2023-05-16T02:27:31.600Z,2.55
2023-05-16T02:27:43.352Z,2.40
2023-05-16T02:27:55.722Z,2.40
2023-05-16T02:28:07.645Z,2.33
2023-05-16T02:28:19.351Z,2.35
2023-05-16T02:28:31.186Z,2.42
2023-05-16T02:28:42.842Z,2.38
2023-05-16T02:28:54.606Z,2.47
2023-05-16T02:29:06.417Z,2.95
2023-05-16T02:29:18.398Z,3.03
2023-05-16T02:29:30.175Z,2.67
2023-05-16T02:29:41.884Z,2.70
2023-05-16T02:29:53.577Z,2.67
2023-05-16T02:30:06.352Z,2.75
2023-05-16T02:30:18.216Z,2.42
2023-05-16T02:30:29.887Z,2.22
2023-05-16T02:30:41.598Z,1.98
2023-05-16T02:30:57.476Z,2.33
2023-05-16T02:31:09.715Z,2.67
2023-05-16T02:31:28.282Z,2.75
2023-05-16T02:31:40.298Z,2.63
2023-05-16T02:31:52.141Z,2.33
2023-05-16T02:32:04.222Z,2.40
2023-05-16T02:32:15.955Z,2.70
2023-05-16T02:32:27.811Z,2.80
2023-05-16T02:32:39.828Z,2.55
2023-05-16T02:32:51.585Z,2.42
2023-05-16T02:33:03.459Z,2.50
2023-05-16T02:33:15.330Z,2.55
2023-05-16T02:33:27.084Z,2.40
2023-05-16T02:33:38.802Z,2.50
2023-05-16T02:33:50.524Z,2.60
2023-05-16T02:34:02.388Z,2.67
2023-05-16T02:34:14.152Z,2.45
2023-05-16T02:34:27.310Z,2.30
2023-05-16T02:34:39.016Z,2.42
2023-05-16T02:34:50.777Z,2.40
2023-05-16T02:35:02.529Z,2.38
2023-05-16T02:35:15.587Z,2.70
2023-05-16T02:35:29.142Z,2.60
2023-05-16T02:35:41.063Z,2.33
2023-05-16T02:35:52.993Z,2.42
2023-05-16T02:36:05.059Z,2.42
2023-05-16T02:36:16.745Z,2.60
2023-05-16T02:36:28.497Z,2.75
2023-05-16T02:36:40.204Z,2.65
2023-05-16T02:36:51.948Z,2.67
2023-05-16T02:37:03.645Z,2.53
2023-05-16T02:37:15.352Z,2.33
2023-05-16T02:37:27.155Z,2.30
2023-05-16T02:37:38.881Z,2.33
2023-05-16T02:37:50.609Z,2.58
2023-05-16T02:38:02.290Z,2.36
2023-05-16T02:38:13.962Z,2.25
2023-05-16T02:38:25.758Z,2.30
2023-05-16T02:38:37.447Z,2.40
2023-05-16T02:38:49.121Z,2.42
2023-05-16T02:39:00.779Z,2.60
2023-05-16T02:39:12.485Z,2.70
2023-05-16T02:39:24.204Z,2.60
2023-05-16T02:39:36.410Z,2.70
2023-05-16T02:39:48.067Z,2.83
2023-05-16T02:40:01.152Z,2.63
2023-05-16T02:40:13.920Z,2.47
2023-05-16T02:40:25.604Z,2.72
2023-05-16T02:40:37.261Z,2.97
2023-05-16T02:40:49.266Z,2.97
2023-05-16T02:41:00.961Z,2.70
2023-05-16T02:41:12.645Z,2.60
2023-05-16T02:41:24.434Z,2.70
2023-05-16T02:41:36.158Z,2.63
2023-05-16T02:41:49.252Z,2.63
2023-05-16T02:42:00.980Z,2.70
2023-05-16T02:42:13.301Z,2.78
2023-05-16T02:42:25.932Z,2.70
2023-05-16T02:42:37.903Z,2.53
2023-05-16T02:42:49.632Z,2.75
2023-05-16T02:43:01.411Z,2.83
2023-05-16T02:43:13.483Z,2.90
2023-05-16T02:43:27.094Z,2.80
2023-05-16T02:43:38.774Z,2.50
2023-05-16T02:43:50.473Z,2.83
2023-05-16T02:44:02.226Z,3.17
2023-05-16T02:44:13.940Z,3.13
2023-05-16T02:44:26.512Z,2.92
2023-05-16T02:44:38.284Z,3.10
2023-05-16T02:44:49.991Z,2.90
2023-05-16T02:45:03.178Z,2.60
2023-05-16T02:45:14.978Z,2.60
2023-05-16T02:45:26.959Z,2.58
2023-05-16T02:45:38.914Z,2.53
2023-05-16T02:45:50.665Z,2.45
2023-05-16T02:46:04.720Z,2.47
2023-05-16T02:46:24.367Z,2.30
2023-05-16T02:46:36.299Z,2.47
2023-05-16T02:46:49.077Z,2.30
2023-05-16T02:47:00.918Z,2.30
2023-05-16T02:47:12.648Z,2.50
2023-05-16T02:47:24.490Z,2.78
2023-05-16T02:47:36.273Z,2.55
2023-05-16T02:47:47.977Z,2.22
2023-05-16T02:47:59.759Z,2.10
2023-05-16T02:48:11.494Z,2.03
2023-05-16T02:48:23.180Z,2.20
2023-05-16T02:48:34.911Z,2.30
2023-05-16T02:48:46.584Z,2.33
2023-05-16T02:48:58.388Z,2.35
2023-05-16T02:49:10.103Z,2.63
2023-05-16T02:49:23.863Z,2.60
2023-05-16T02:49:35.597Z,2.75
2023-05-16T02:49:47.312Z,2.88
2023-05-16T02:49:59.007Z,2.70
2023-05-16T02:50:11.519Z,2.78
2023-05-16T02:50:23.292Z,2.42
2023-05-16T02:50:35.065Z,2.50
2023-05-16T02:50:46.757Z,2.63
2023-05-16T02:50:58.387Z,2.70
2023-05-16T02:51:10.196Z,2.60
2023-05-16T02:51:23.069Z,2.47
2023-05-16T02:51:34.765Z,2.40
2023-05-16T02:51:46.503Z,2.40
2023-05-16T02:51:58.152Z,2.28
2023-05-16T02:52:10.110Z,2.35
2023-05-16T02:52:21.829Z,2.40
2023-05-16T02:52:33.516Z,2.38
2023-05-16T02:52:45.223Z,2.30
2023-05-16T02:52:57.121Z,2.13
2023-05-16T02:53:08.893Z,2.20
2023-05-16T02:53:20.607Z,2.35
2023-05-16T02:53:32.312Z,2.17
2023-05-16T02:53:44.065Z,1.95
2023-05-16T02:53:56.307Z,2.05
2023-05-16T02:54:07.987Z,2.13
2023-05-16T02:54:19.646Z,2.45
2023-05-16T02:54:31.361Z,2.20
2023-05-16T02:54:43.030Z,2.25
2023-05-16T02:55:15.971Z,2.22
2023-05-16T02:55:26.886Z,2.35
2023-05-16T02:55:38.820Z,2.15